»·PEaware :: N707WT KSPB-KSBA

N707WT :: KSPB-KSBA

FLIGHT INFORMATION

Flight Status: Arrived
Operator: Privately registered:
United States
More flights under this callsign
Pilot: Mark B. (9455)
Aircraft: CIRRUS SR-20
(SR20)
More flights by this aircraft type
Origin: KSPB Scappoose Industrial
United States
Destination: KSBA Santa Barbara Mun
United States
More flights between these airports :: More routes between these airports
Route: GVO
File this flight plan on PilotEdge
Remarks:
Altitude:
(Current/Filed)
5,000ft
Speed:
(Current/Filed)
145kts
Departed: 16-Nov-18 08:09 PM
Arrived: 16-Nov-18 08:53 PM
Distance/Time
Traveled:
694nm/0:43
Distance/Time
To Go:
Arrived

Flight Plot

Page will automatically refresh every two minutes.


Map Options




Map Legend


Flown Route
Filed Route
Departure Airport
Arrival Airport
Navaid (VOR, NDB)
Fix

Horizontal Profiles

Position Reports

Time Latitude Longitude Heading Altitude Ground
Speed
16-Nov-18 19:59 35.242111 -120.649418 124 155ft 0kts
16-Nov-18 20:00 35.238388 -120.640110 304 190ft 0kts
16-Nov-18 20:01 35.238388 -120.640110 304 190ft 0kts
16-Nov-18 20:02 35.238388 -120.640110 304 190ft 0kts
16-Nov-18 20:03 35.238388 -120.640110 304 190ft 0kts
16-Nov-18 20:04 35.238388 -120.640110 304 190ft 0kts
16-Nov-18 20:05 35.238388 -120.640110 304 190ft 0kts
16-Nov-18 20:06 35.238388 -120.640110 304 190ft 0kts
16-Nov-18 20:07 35.237980 -120.640300 131 190ft 6kts
16-Nov-18 20:08 35.236085 -120.636960 126 202ft 14kts
16-Nov-18 20:09 35.234990 -120.634975 125 207ft 4kts
16-Nov-18 20:10 35.234205 -120.634034 206 209ft 0kts
16-Nov-18 20:11 35.234205 -120.634034 206 209ft 0kts
16-Nov-18 20:12 35.234919 -120.636762 305 200ft 58kts
16-Nov-18 20:13 35.248122 -120.656545 310 893ft 99kts
16-Nov-18 20:14 35.263808 -120.684197 305 2102ft 100kts
16-Nov-18 20:15 35.280519 -120.709967 310 3176ft 103kts
16-Nov-18 20:16 35.297614 -120.737722 308 4231ft 103kts
16-Nov-18 20:17 35.316903 -120.766962 305 4896ft 130kts
16-Nov-18 20:18 35.301451 -120.793595 160 5035ft 149kts
16-Nov-18 20:19 35.273674 -120.770413 141 5018ft 153kts
16-Nov-18 20:20 35.249854 -120.746798 144 4988ft 154kts
16-Nov-18 20:21 35.227318 -120.727321 143 5052ft 148kts
16-Nov-18 20:22 35.207481 -120.708455 142 5035ft 150kts
16-Nov-18 20:23 35.178085 -120.680389 141 5104ft 149kts
16-Nov-18 20:24 35.147751 -120.652187 142 5094ft 150kts
16-Nov-18 20:25 35.120512 -120.625611 143 5004ft 155kts
16-Nov-18 20:26 35.092952 -120.599724 140 4956ft 158kts
16-Nov-18 20:27 35.064430 -120.575217 143 4999ft 156kts
16-Nov-18 20:28 35.036236 -120.549547 143 4957ft 158kts
16-Nov-18 20:29 35.007924 -120.523873 141 4990ft 157kts
16-Nov-18 20:30 34.977053 -120.497767 144 4952ft 159kts
16-Nov-18 20:31 34.950172 -120.469924 141 4969ft 155kts
16-Nov-18 20:32 34.925133 -120.446543 142 4947ft 157kts
16-Nov-18 20:33 34.916821 -120.438878 143 4954ft 156kts
16-Nov-18 20:34 34.892128 -120.416543 140 5006ft 153kts
16-Nov-18 20:35 34.869289 -120.394724 148 5008ft 154kts
16-Nov-18 20:36 34.844058 -120.375005 144 5008ft 155kts
16-Nov-18 20:37 34.817566 -120.350802 142 5003ft 156kts
16-Nov-18 20:38 34.785833 -120.323028 142 5050ft 155kts
16-Nov-18 20:39 34.751779 -120.290261 140 4993ft 158kts
16-Nov-18 20:40 34.717439 -120.257338 143 5028ft 158kts
16-Nov-18 20:41 34.680492 -120.227822 146 4968ft 158kts
16-Nov-18 20:42 34.645818 -120.195250 140 4964ft 159kts
16-Nov-18 20:43 34.611121 -120.164018 139 5140ft 152kts
16-Nov-18 20:44 34.573625 -120.148730 175 4617ft 171kts
16-Nov-18 20:45 34.534729 -120.144083 173 4137ft 173kts
16-Nov-18 20:46 34.498082 -120.137364 168 4059ft 158kts
16-Nov-18 20:47 34.463951 -120.129916 171 4024ft 158kts
16-Nov-18 20:48 34.427097 -120.117624 138 3913ft 165kts
16-Nov-18 20:49 34.419358 -120.067869 84 3752ft 160kts
16-Nov-18 20:50 34.422564 -120.023838 85 3286ft 155kts
16-Nov-18 20:51 34.424932 -119.984444 81 2600ft 149kts
16-Nov-18 20:52 34.425908 -119.942407 92 1546ft 146kts
16-Nov-18 20:53 34.425882 -119.907420 87 918ft 90kts
16-Nov-18 20:54 34.426955 -119.878446 90 657ft 96kts
16-Nov-18 20:55 34.427280 -119.852743 87 19ft 59kts
16-Nov-18 20:56 34.428334 -119.845199 64 10ft 0kts

Navigation Log

Ident Type
Flight plan parsing failed, navigation log unavailable